Stratton, Vermont
Current Conditions -  °F | °C
As of 2:08 AM on Thursday 23 Oct 2014 (Local Time) from KDDH Reporting Station
Moderate Rain Moderate Rain  
Wind Chill: 45°   Ceiling: 1300
Heat Index: 48°   Visibility: 4mi
Dew Point: 45°   Wind: 6mph
Humidity: 89%   Direction: 320°NW
Pressure: 29.88"   Gusts: NA
Location:  43.0569°N, 72.9254°W
Report Text: KDDH 230608Z AUTO 32005KT 4SM RA BR BKN013 OVC029 09/07 A2988 RMK AO2 P0004 T00890072
Loading
Personal Weather Stations






























Interactive Weather Map
Tropical Storm Tracking
New forecast layout! Learn more

10-Day Weather Forecast

Advertisements
Track Severe Weather on mobile